createdAt,value
2022-10-09T00:00:22.765Z,11.52
2022-10-09T00:03:24.963Z,9.65
2022-10-09T00:06:30.945Z,9.88
2022-10-09T00:09:36.261Z,8.80
2022-10-09T00:12:38.542Z,11.55
2022-10-09T00:15:42.540Z,9.10
2022-10-09T00:18:44.766Z,10.43
2022-10-09T00:21:46.882Z,9.52
2022-10-09T00:24:49.216Z,9.07
2022-10-09T00:27:51.343Z,9.68
2022-10-09T00:30:54.190Z,9.00
2022-10-09T00:33:56.752Z,10.23
2022-10-09T00:36:58.850Z,9.90
2022-10-09T00:40:01.074Z,10.13
2022-10-09T00:43:04.747Z,10.43
2022-10-09T00:46:09.539Z,10.38
2022-10-09T00:49:34.420Z,11.40
2022-10-09T00:52:36.752Z,10.27
2022-10-09T00:55:39.975Z,11.30
2022-10-09T00:58:42.224Z,9.70
2022-10-09T01:01:44.717Z,11.57
2022-10-09T01:04:47.139Z,11.35
2022-10-09T01:08:14.763Z,11.30
2022-10-09T01:11:35.493Z,10.10
2022-10-09T01:14:48.977Z,10.65
2022-10-09T01:18:04.765Z,10.73
2022-10-09T01:21:21.024Z,11.27
2022-10-09T01:24:32.399Z,10.57
2022-10-09T01:27:36.223Z,10.85
2022-10-09T01:30:38.817Z,11.77
2022-10-09T01:33:41.665Z,12.07
2022-10-09T01:36:45.082Z,10.30
2022-10-09T01:39:49.363Z,12.00
2022-10-09T01:42:52.076Z,10.27
2022-10-09T01:46:19.022Z,11.00
2022-10-09T01:49:41.330Z,12.50
2022-10-09T01:53:19.361Z,12.32
2022-10-09T01:56:23.118Z,12.23
2022-10-09T01:59:27.356Z,13.98
2022-10-09T02:02:29.778Z,12.02
2022-10-09T02:05:32.753Z,15.18
2022-10-09T02:08:38.845Z,11.90
2022-10-09T02:11:43.533Z,13.90
2022-10-09T02:14:45.967Z,14.32
2022-10-09T02:17:50.579Z,13.63
2022-10-09T02:20:59.528Z,13.85
2022-10-09T02:24:03.302Z,11.07
2022-10-09T02:27:06.544Z,13.95
2022-10-09T02:30:10.961Z,13.32
2022-10-09T02:33:13.104Z,13.43
2022-10-09T02:36:15.357Z,15.07
2022-10-09T02:39:18.324Z,12.50
2022-10-09T02:42:20.542Z,14.02
2022-10-09T02:45:23.053Z,13.40
2022-10-09T02:48:25.276Z,11.60
2022-10-09T02:51:27.682Z,14.20
2022-10-09T02:54:29.937Z,14.80
2022-10-09T02:57:32.101Z,13.32
2022-10-09T03:00:34.178Z,14.10
2022-10-09T03:03:36.460Z,13.88
2022-10-09T03:06:38.627Z,14.70
2022-10-09T03:09:40.771Z,13.38
2022-10-09T03:12:42.869Z,13.77
2022-10-09T03:15:44.960Z,11.95
2022-10-09T03:18:48.495Z,13.10
2022-10-09T03:21:50.644Z,16.05
2022-10-09T03:24:52.774Z,14.65
2022-10-09T03:27:54.893Z,15.38
2022-10-09T03:30:57.248Z,12.07
2022-10-09T03:33:59.387Z,16.00
2022-10-09T03:37:01.496Z,14.57
2022-10-09T03:40:04.395Z,14.52
2022-10-09T03:43:07.120Z,13.48
2022-10-09T03:46:10.831Z,14.27
2022-10-09T03:49:13.450Z,12.80
2022-10-09T03:52:15.553Z,16.73
2022-10-09T03:55:17.748Z,14.35
2022-10-09T03:58:19.849Z,12.73
2022-10-09T04:01:22.071Z,13.35
2022-10-09T04:04:24.354Z,15.05
2022-10-09T04:07:26.463Z,14.50
2022-10-09T04:10:28.708Z,16.30
2022-10-09T04:13:31.033Z,16.77
2022-10-09T04:16:33.224Z,14.13
2022-10-09T04:19:36.385Z,13.70
2022-10-09T04:22:38.718Z,14.07
2022-10-09T04:25:40.899Z,13.18
2022-10-09T04:28:43.745Z,11.45
2022-10-09T04:31:46.210Z,13.77
2022-10-09T04:34:48.448Z,12.55
2022-10-09T04:37:50.703Z,13.52
2022-10-09T04:41:00.829Z,12.02
2022-10-09T04:47:08.132Z,12.90
2022-10-09T04:50:12.685Z,13.82
2022-10-09T04:53:15.217Z,11.40
2022-10-09T04:56:20.235Z,12.70
2022-10-09T04:59:22.404Z,13.55
2022-10-09T05:02:24.628Z,13.65
2022-10-09T05:05:26.829Z,14.57
2022-10-09T05:08:30.428Z,15.45
2022-10-09T05:11:32.620Z,10.80
2022-10-09T05:14:34.749Z,14.48
2022-10-09T05:17:36.922Z,13.27
2022-10-09T05:20:42.393Z,11.35
2022-10-09T05:23:45.373Z,10.45
2022-10-09T05:26:47.585Z,11.02
2022-10-09T05:29:49.806Z,9.52
2022-10-09T05:32:52.199Z,11.77
2022-10-09T05:35:59.750Z,13.82
2022-10-09T05:39:02.172Z,11.00
2022-10-09T05:42:04.896Z,10.93
2022-10-09T05:45:08.615Z,11.20
2022-10-09T05:48:10.735Z,10.77
2022-10-09T05:51:16.862Z,10.70
2022-10-09T05:54:19.011Z,10.85
2022-10-09T05:57:21.172Z,8.57
2022-10-09T06:00:23.249Z,11.35
2022-10-09T06:03:25.446Z,11.07
2022-10-09T06:06:30.727Z,12.05
2022-10-09T06:09:32.914Z,11.68
2022-10-09T06:12:35.607Z,11.68
2022-10-09T06:15:37.729Z,12.10
2022-10-09T06:18:49.121Z,10.77
2022-10-09T06:21:52.017Z,10.23
2022-10-09T06:24:54.190Z,11.50
2022-10-09T06:27:56.357Z,10.80
2022-10-09T06:31:16.044Z,12.57
2022-10-09T06:34:18.397Z,10.85
2022-10-09T06:37:20.613Z,14.00
2022-10-09T06:40:22.836Z,15.52
2022-10-09T06:43:25.049Z,13.57
2022-10-09T06:46:30.987Z,12.55
2022-10-09T06:49:33.384Z,13.85
2022-10-09T06:52:35.461Z,12.57
2022-10-09T06:55:37.576Z,13.38
2022-10-09T06:58:40.608Z,14.23
2022-10-09T07:01:42.907Z,13.77
2022-10-09T07:04:46.973Z,15.45
2022-10-09T07:07:49.124Z,15.27
2022-10-09T07:10:51.294Z,14.00
2022-10-09T07:13:56.334Z,13.48
2022-10-09T07:16:58.531Z,18.30
2022-10-09T07:20:00.701Z,14.70
2022-10-09T07:23:03.327Z,15.20
2022-10-09T07:26:17.411Z,13.68
2022-10-09T07:29:20.133Z,14.70
2022-10-09T07:32:22.368Z,15.02
2022-10-09T07:35:24.638Z,14.07
2022-10-09T07:38:27.580Z,13.43
2022-10-09T07:41:30.046Z,15.32
2022-10-09T07:44:32.328Z,15.90
2022-10-09T07:47:34.470Z,17.33
2022-10-09T07:50:36.894Z,15.57
2022-10-09T07:53:39.329Z,15.30
2022-10-09T07:56:41.480Z,16.80
2022-10-09T07:59:43.635Z,17.92
2022-10-09T08:02:46.091Z,15.20
2022-10-09T08:05:55.907Z,15.50
2022-10-09T08:09:00.287Z,18.63
2022-10-09T08:12:02.367Z,19.17
2022-10-09T08:15:04.931Z,16.17
2022-10-09T08:18:06.984Z,13.07
2022-10-09T08:21:13.095Z,15.13
2022-10-09T08:24:15.246Z,17.45
2022-10-09T08:27:17.404Z,12.02
2022-10-09T08:30:19.739Z,15.65
2022-10-09T08:33:25.009Z,14.77
2022-10-09T08:36:28.005Z,14.38
2022-10-09T08:39:31.244Z,12.65
2022-10-09T08:42:51.711Z,12.68
2022-10-09T08:45:55.036Z,9.63
2022-10-09T08:48:58.534Z,11.30
2022-10-09T08:52:28.011Z,11.32
2022-10-09T08:55:37.007Z,11.38
2022-10-09T08:58:41.413Z,11.27
2022-10-09T09:01:58.172Z,8.43
2022-10-09T09:05:29.661Z,11.25
2022-10-09T09:08:38.174Z,9.82
2022-10-09T09:12:06.731Z,9.27
2022-10-09T09:15:14.711Z,9.32
2022-10-09T09:18:26.972Z,8.38
2022-10-09T09:21:41.095Z,7.97
2022-10-09T09:24:53.495Z,7.43
2022-10-09T09:28:00.065Z,6.43
2022-10-09T09:31:14.270Z,8.45
2022-10-09T09:34:40.511Z,6.10
2022-10-09T09:37:42.768Z,7.72
2022-10-09T09:40:47.197Z,9.77
2022-10-09T09:43:49.918Z,5.95
2022-10-09T09:46:53.067Z,5.72
2022-10-09T09:50:01.059Z,8.50
2022-10-09T09:53:13.135Z,7.38
2022-10-09T09:56:16.623Z,8.13
2022-10-09T09:59:43.324Z,7.30
2022-10-09T10:02:45.594Z,6.43
2022-10-09T10:05:48.267Z,10.55
2022-10-09T10:09:00.482Z,8.25
2022-10-09T10:12:04.078Z,8.70
2022-10-09T10:15:06.639Z,9.05
2022-10-09T10:18:16.205Z,8.98
2022-10-09T10:21:20.209Z,8.88
2022-10-09T10:24:31.848Z,9.50
2022-10-09T10:27:42.697Z,11.07
2022-10-09T10:30:45.737Z,7.95
2022-10-09T10:33:54.918Z,10.35
2022-10-09T10:37:07.300Z,15.10
2022-10-09T10:40:18.119Z,9.77
2022-10-09T10:43:23.392Z,7.60
2022-10-09T10:46:52.539Z,12.02
2022-10-09T10:49:54.844Z,7.37
2022-10-09T10:53:38.084Z,9.80
2022-10-09T10:57:01.405Z,8.40
2022-10-09T11:00:09.859Z,9.15
2022-10-09T11:03:17.890Z,9.43
2022-10-09T11:06:23.106Z,7.13
2022-10-09T11:09:35.147Z,6.68
2022-10-09T11:12:48.733Z,13.30
2022-10-09T11:16:28.410Z,8.35
2022-10-09T11:19:45.395Z,11.38
2022-10-09T11:23:06.018Z,8.15
2022-10-09T11:26:25.298Z,8.43
2022-10-09T11:29:37.358Z,7.17
2022-10-09T11:32:52.647Z,9.32
2022-10-09T11:36:16.844Z,7.43
2022-10-09T11:39:26.008Z,10.90
2022-10-09T11:42:29.422Z,7.83
2022-10-09T11:45:51.462Z,6.68
2022-10-09T11:48:59.423Z,10.07
2022-10-09T11:52:15.901Z,9.85
2022-10-09T11:55:24.927Z,6.50
2022-10-09T11:58:27.077Z,6.93
2022-10-09T12:01:37.119Z,6.70
2022-10-09T12:04:55.667Z,9.50
2022-10-09T12:08:08.539Z,8.05
2022-10-09T12:11:17.043Z,7.68
2022-10-09T12:14:25.657Z,5.38
2022-10-09T12:17:27.919Z,6.38
2022-10-09T12:20:30.657Z,6.47
2022-10-09T12:23:36.048Z,6.90
2022-10-09T12:26:40.269Z,8.65
2022-10-09T12:29:47.977Z,5.45
2022-10-09T12:32:55.413Z,4.85
2022-10-09T12:36:12.450Z,5.38
2022-10-09T12:39:23.745Z,6.80
2022-10-09T12:42:27.076Z,6.80
2022-10-09T12:45:31.850Z,5.35
2022-10-09T12:48:39.588Z,5.07
2022-10-09T12:51:41.804Z,6.05
2022-10-09T12:54:45.277Z,6.03
2022-10-09T12:57:47.782Z,5.60
2022-10-09T13:01:14.713Z,7.22
2022-10-09T13:04:33.054Z,5.55
2022-10-09T13:07:35.470Z,7.72
2022-10-09T13:10:37.666Z,6.53
2022-10-09T13:13:52.148Z,6.28
2022-10-09T13:16:55.000Z,10.52
2022-10-09T13:20:00.610Z,5.75
2022-10-09T13:23:05.812Z,9.35
2022-10-09T13:26:13.758Z,8.25
2022-10-09T13:29:15.918Z,6.72
2022-10-09T13:32:18.594Z,8.13
2022-10-09T13:35:20.895Z,6.32
2022-10-09T13:38:24.087Z,10.55
2022-10-09T13:41:26.303Z,8.65
2022-10-09T13:44:28.480Z,8.57
2022-10-09T13:47:30.792Z,7.80
2022-10-09T13:50:33.006Z,7.57
2022-10-09T13:53:35.475Z,7.70
2022-10-09T13:56:37.660Z,7.68
2022-10-09T13:59:39.895Z,9.00
2022-10-09T14:02:42.201Z,6.45
2022-10-09T14:05:45.148Z,6.00
2022-10-09T14:08:47.411Z,7.82
2022-10-09T14:11:49.581Z,5.93
2022-10-09T14:14:53.525Z,7.00
2022-10-09T14:17:55.692Z,7.72
2022-10-09T14:20:57.844Z,9.30
2022-10-09T14:24:02.815Z,9.45
2022-10-09T14:27:06.447Z,6.18
2022-10-09T14:30:09.406Z,6.13
2022-10-09T14:33:12.922Z,7.88
2022-10-09T14:36:19.175Z,6.55
2022-10-09T14:39:21.384Z,6.35
2022-10-09T14:42:23.522Z,5.30
2022-10-09T14:45:25.673Z,6.10
2022-10-09T14:48:27.794Z,6.75
2022-10-09T14:51:36.014Z,5.25
2022-10-09T14:54:38.898Z,7.63
2022-10-09T14:57:41.108Z,6.05
2022-10-09T15:00:47.612Z,5.47
2022-10-09T15:03:55.859Z,6.28
2022-10-09T15:06:58.099Z,7.00
2022-10-09T15:10:00.321Z,5.80
2022-10-09T15:13:02.455Z,6.28
2022-10-09T15:16:08.145Z,5.13
2022-10-09T15:19:13.960Z,5.22
2022-10-09T15:22:16.156Z,5.85
2022-10-09T15:25:18.315Z,6.25
2022-10-09T15:28:21.008Z,4.70
2022-10-09T15:31:37.252Z,5.88
2022-10-09T15:34:41.226Z,8.15
2022-10-09T15:40:54.365Z,4.60
2022-10-09T15:43:59.408Z,6.22
2022-10-09T15:47:01.561Z,5.05
2022-10-09T15:50:04.147Z,5.03
2022-10-09T15:53:11.087Z,4.82
2022-10-09T15:56:16.319Z,5.15
2022-10-09T15:59:25.842Z,5.57
2022-10-09T16:02:27.956Z,7.25
2022-10-09T16:05:30.303Z,6.57
2022-10-09T16:08:32.790Z,5.90
2022-10-09T16:11:34.987Z,4.47
2022-10-09T16:14:38.426Z,5.38
2022-10-09T16:17:40.618Z,4.55
2022-10-09T16:20:43.199Z,7.18
2022-10-09T16:23:46.153Z,6.72
2022-10-09T16:26:50.985Z,4.97
2022-10-09T16:29:53.078Z,4.63
2022-10-09T16:32:55.334Z,5.90
2022-10-09T16:36:11.363Z,7.72
2022-10-09T16:39:13.479Z,5.10
2022-10-09T16:42:16.872Z,5.65
2022-10-09T16:45:19.078Z,7.18
2022-10-09T16:48:21.387Z,8.95
2022-10-09T16:51:29.568Z,9.35
2022-10-09T16:54:31.757Z,44.78
2022-10-09T16:57:33.962Z,32.45
2022-10-09T17:00:36.194Z,36.10
2022-10-09T17:03:42.519Z,34.40
2022-10-09T17:06:45.726Z,28.48
2022-10-09T17:09:47.830Z,25.92
2022-10-09T17:12:50.200Z,23.75
2022-10-09T17:15:53.003Z,19.13
2022-10-09T17:18:55.595Z,23.38
2022-10-09T17:21:57.732Z,20.10
2022-10-09T17:24:59.948Z,17.48
2022-10-09T17:28:07.712Z,17.25
2022-10-09T17:31:14.331Z,19.52
2022-10-09T17:34:16.881Z,22.17
2022-10-09T17:37:18.991Z,16.10
2022-10-09T17:40:21.096Z,18.13
2022-10-09T17:43:23.207Z,12.73
2022-10-09T17:46:28.208Z,17.08
2022-10-09T17:49:30.382Z,15.68
2022-10-09T17:52:32.562Z,13.48
2022-10-09T17:55:38.628Z,13.93
2022-10-09T17:58:41.081Z,16.88
2022-10-09T18:01:43.396Z,12.70
2022-10-09T18:04:45.631Z,12.60
2022-10-09T18:07:48.167Z,16.13
2022-10-09T18:11:02.263Z,14.52
2022-10-09T18:14:04.479Z,10.27
2022-10-09T18:17:07.803Z,9.23
2022-10-09T18:20:11.213Z,13.65
2022-10-09T18:23:13.835Z,13.10
2022-10-09T18:26:19.566Z,10.45
2022-10-09T18:29:21.698Z,13.05
2022-10-09T18:32:23.794Z,12.50
2022-10-09T18:35:26.801Z,10.18
2022-10-09T18:38:28.918Z,14.30
2022-10-09T18:41:31.110Z,11.57
2022-10-09T18:44:40.202Z,11.32
2022-10-09T18:47:42.725Z,9.05
2022-10-09T18:50:45.297Z,10.40
2022-10-09T18:53:55.980Z,10.25
2022-10-09T18:56:58.371Z,13.25
2022-10-09T19:00:01.869Z,11.35
2022-10-09T19:03:04.333Z,11.73
2022-10-09T19:06:06.854Z,10.48
2022-10-09T19:09:08.961Z,6.88
2022-10-09T19:12:11.140Z,8.15
2022-10-09T19:15:13.233Z,8.13
2022-10-09T19:18:15.588Z,8.77
2022-10-09T19:21:17.642Z,9.02
2022-10-09T19:24:19.757Z,9.80
2022-10-09T19:27:26.344Z,8.52
2022-10-09T19:30:28.799Z,6.95
2022-10-09T19:33:31.232Z,8.75
2022-10-09T19:36:36.647Z,9.55
2022-10-09T19:39:38.926Z,9.68
2022-10-09T19:42:41.030Z,7.70
2022-10-09T19:45:43.462Z,9.48
2022-10-09T19:48:45.975Z,6.18
2022-10-09T19:51:49.438Z,6.30
2022-10-09T19:54:51.743Z,7.63
2022-10-09T19:57:53.872Z,6.30
2022-10-09T20:00:56.070Z,7.53
2022-10-09T20:04:00.859Z,6.38
2022-10-09T20:07:03.042Z,6.97
2022-10-09T20:10:05.551Z,5.75
2022-10-09T20:13:07.729Z,6.38
2022-10-09T20:16:12.973Z,7.75
2022-10-09T20:19:15.104Z,6.47
2022-10-09T20:22:17.457Z,8.13
2022-10-09T20:25:20.110Z,8.57
2022-10-09T20:28:22.498Z,6.60
2022-10-09T20:31:26.383Z,6.85
2022-10-09T20:34:28.595Z,5.57
2022-10-09T20:37:31.773Z,5.72
2022-10-09T20:40:34.288Z,6.60
2022-10-09T20:43:36.775Z,5.70
2022-10-09T20:46:40.178Z,7.93
2022-10-09T20:49:43.734Z,6.28
2022-10-09T20:52:45.948Z,8.27
2022-10-09T20:55:48.092Z,6.68
2022-10-09T20:58:50.370Z,6.40
2022-10-09T21:01:52.535Z,6.00
2022-10-09T21:05:00.879Z,6.35
2022-10-09T21:08:04.031Z,5.63
2022-10-09T21:11:08.872Z,6.70
2022-10-09T21:14:14.445Z,7.47
2022-10-09T21:17:16.625Z,6.78
2022-10-09T21:20:18.804Z,6.63
2022-10-09T21:23:20.945Z,5.70
2022-10-09T21:26:24.416Z,5.28
2022-10-09T21:29:27.201Z,6.82
2022-10-09T21:32:29.536Z,5.82
2022-10-09T21:35:31.731Z,6.10
2022-10-09T21:38:33.964Z,5.82
2022-10-09T21:41:37.244Z,6.22
2022-10-09T21:44:39.440Z,5.95
2022-10-09T21:47:56.259Z,6.68
2022-10-09T21:50:58.514Z,5.30
2022-10-09T21:54:00.655Z,7.47
2022-10-09T21:57:02.960Z,5.45
2022-10-09T22:00:06.271Z,8.80
2022-10-09T22:03:09.167Z,5.35
2022-10-09T22:06:18.444Z,7.53
2022-10-09T22:09:21.687Z,5.38
2022-10-09T22:12:23.912Z,5.00
2022-10-09T22:15:26.049Z,5.75
2022-10-09T22:18:28.161Z,5.65
2022-10-09T22:21:30.484Z,5.80
2022-10-09T22:24:32.623Z,6.50
2022-10-09T22:27:34.913Z,4.57
2022-10-09T22:30:37.086Z,5.65
2022-10-09T22:33:39.611Z,4.60
2022-10-09T22:36:42.053Z,6.03
2022-10-09T22:39:45.291Z,5.13
2022-10-09T22:42:47.752Z,6.35
2022-10-09T22:45:50.177Z,4.60
2022-10-09T22:48:53.102Z,4.82
2022-10-09T22:51:55.321Z,4.30
2022-10-09T22:54:57.524Z,4.85
2022-10-09T22:57:59.740Z,6.25
2022-10-09T23:01:08.884Z,5.50
2022-10-09T23:04:13.713Z,4.28
2022-10-09T23:07:15.856Z,4.85
2022-10-09T23:10:18.125Z,4.50
2022-10-09T23:13:21.774Z,5.05
2022-10-09T23:16:25.171Z,4.90
2022-10-09T23:19:27.363Z,6.00
2022-10-09T23:22:29.532Z,5.38
2022-10-09T23:25:31.750Z,4.53
2022-10-09T23:28:35.085Z,6.35
2022-10-09T23:31:38.357Z,4.22
2022-10-09T23:34:41.568Z,5.03
2022-10-09T23:37:43.686Z,4.38
2022-10-09T23:40:55.623Z,3.72
2022-10-09T23:43:57.886Z,6.60
2022-10-09T23:47:00.020Z,6.03
2022-10-09T23:50:02.299Z,3.97
2022-10-09T23:53:04.415Z,7.68
2022-10-09T23:56:25.372Z,4.70
2022-10-09T23:59:27.603Z,4.40
